sensor_id;sensor_type;location;lat;lon;timestamp;P1;durP1;ratioP1;P2;durP2;ratioP2
15126;SDS011;7664;52.008;4.748;2022-08-19T00:02:19;5.38;;;3.72;;
15126;SDS011;7664;52.008;4.748;2022-08-19T00:04:47;5.80;;;3.95;;
15126;SDS011;7664;52.008;4.748;2022-08-19T00:07:19;5.20;;;4.20;;
15126;SDS011;7664;52.008;4.748;2022-08-19T00:09:48;6.75;;;4.03;;
15126;SDS011;7664;52.008;4.748;2022-08-19T00:12:17;4.20;;;3.58;;
15126;SDS011;7664;52.008;4.748;2022-08-19T00:14:46;4.93;;;3.90;;
15126;SDS011;7664;52.008;4.748;2022-08-19T00:17:14;4.18;;;3.22;;
15126;SDS011;7664;52.008;4.748;2022-08-19T00:19:42;4.78;;;3.67;;
15126;SDS011;7664;52.008;4.748;2022-08-19T00:22:11;6.05;;;4.50;;
15126;SDS011;7664;52.008;4.748;2022-08-19T00:24:43;6.05;;;3.97;;
15126;SDS011;7664;52.008;4.748;2022-08-19T00:27:16;8.38;;;4.22;;
15126;SDS011;7664;52.008;4.748;2022-08-19T00:29:52;7.15;;;4.18;;
15126;SDS011;7664;52.008;4.748;2022-08-19T00:32:20;6.68;;;5.43;;
15126;SDS011;7664;52.008;4.748;2022-08-19T00:34:49;9.55;;;5.63;;
15126;SDS011;7664;52.008;4.748;2022-08-19T00:37:19;9.00;;;5.53;;
15126;SDS011;7664;52.008;4.748;2022-08-19T00:39:50;7.68;;;5.35;;
15126;SDS011;7664;52.008;4.748;2022-08-19T00:42:19;7.82;;;5.68;;
15126;SDS011;7664;52.008;4.748;2022-08-19T00:44:51;7.28;;;5.90;;
15126;SDS011;7664;52.008;4.748;2022-08-19T00:47:19;9.50;;;7.00;;
15126;SDS011;7664;52.008;4.748;2022-08-19T00:49:52;11.82;;;6.93;;
15126;SDS011;7664;52.008;4.748;2022-08-19T00:52:27;10.00;;;7.40;;
15126;SDS011;7664;52.008;4.748;2022-08-19T00:55:05;9.93;;;7.05;;
15126;SDS011;7664;52.008;4.748;2022-08-19T00:57:38;9.13;;;6.60;;
15126;SDS011;7664;52.008;4.748;2022-08-19T01:00:12;9.52;;;7.55;;
15126;SDS011;7664;52.008;4.748;2022-08-19T01:02:43;15.30;;;7.70;;
15126;SDS011;7664;52.008;4.748;2022-08-19T01:05:14;9.68;;;7.20;;
15126;SDS011;7664;52.008;4.748;2022-08-19T01:07:48;10.65;;;7.78;;
15126;SDS011;7664;52.008;4.748;2022-08-19T01:10:20;11.63;;;8.50;;
15126;SDS011;7664;52.008;4.748;2022-08-19T01:12:53;11.45;;;8.05;;
15126;SDS011;7664;52.008;4.748;2022-08-19T01:15:24;11.60;;;7.65;;
15126;SDS011;7664;52.008;4.748;2022-08-19T01:17:57;11.55;;;8.05;;
15126;SDS011;7664;52.008;4.748;2022-08-19T01:20:28;10.23;;;7.03;;
15126;SDS011;7664;52.008;4.748;2022-08-19T01:22:59;12.57;;;8.57;;
15126;SDS011;7664;52.008;4.748;2022-08-19T01:25:29;12.30;;;7.57;;
15126;SDS011;7664;52.008;4.748;2022-08-19T01:28:04;14.70;;;8.70;;
15126;SDS011;7664;52.008;4.748;2022-08-19T01:30:36;11.32;;;7.22;;
15126;SDS011;7664;52.008;4.748;2022-08-19T01:33:09;10.68;;;7.68;;
15126;SDS011;7664;52.008;4.748;2022-08-19T01:35:38;10.57;;;7.35;;
15126;SDS011;7664;52.008;4.748;2022-08-19T01:38:09;11.95;;;7.32;;
15126;SDS011;7664;52.008;4.748;2022-08-19T01:40:50;9.63;;;7.60;;
15126;SDS011;7664;52.008;4.748;2022-08-19T01:43:18;10.25;;;6.93;;
15126;SDS011;7664;52.008;4.748;2022-08-19T01:45:46;12.13;;;7.82;;
15126;SDS011;7664;52.008;4.748;2022-08-19T01:48:16;9.00;;;6.40;;
15126;SDS011;7664;52.008;4.748;2022-08-19T01:50:44;9.07;;;6.55;;
15126;SDS011;7664;52.008;4.748;2022-08-19T01:53:15;8.30;;;6.32;;
15126;SDS011;7664;52.008;4.748;2022-08-19T01:55:43;7.55;;;5.80;;
15126;SDS011;7664;52.008;4.748;2022-08-19T01:58:14;7.60;;;5.40;;
15126;SDS011;7664;52.008;4.748;2022-08-19T02:00:46;8.80;;;5.70;;
15126;SDS011;7664;52.008;4.748;2022-08-19T02:03:16;7.10;;;5.43;;
15126;SDS011;7664;52.008;4.748;2022-08-19T02:05:45;7.05;;;4.97;;
15126;SDS011;7664;52.008;4.748;2022-08-19T02:08:17;7.93;;;4.93;;
15126;SDS011;7664;52.008;4.748;2022-08-19T02:10:46;6.80;;;5.35;;
15126;SDS011;7664;52.008;4.748;2022-08-19T02:13:17;6.78;;;5.22;;
15126;SDS011;7664;52.008;4.748;2022-08-19T02:15:51;5.88;;;4.65;;
15126;SDS011;7664;52.008;4.748;2022-08-19T02:18:19;8.95;;;4.47;;
15126;SDS011;7664;52.008;4.748;2022-08-19T02:20:53;5.55;;;4.50;;
15126;SDS011;7664;52.008;4.748;2022-08-19T02:23:23;6.30;;;4.50;;
15126;SDS011;7664;52.008;4.748;2022-08-19T02:25:51;6.45;;;4.68;;
15126;SDS011;7664;52.008;4.748;2022-08-19T02:28:20;9.25;;;5.03;;
15126;SDS011;7664;52.008;4.748;2022-08-19T02:30:49;4.95;;;4.18;;
15126;SDS011;7664;52.008;4.748;2022-08-19T02:33:17;6.20;;;4.75;;
15126;SDS011;7664;52.008;4.748;2022-08-19T02:35:45;6.45;;;4.72;;
15126;SDS011;7664;52.008;4.748;2022-08-19T02:38:14;6.80;;;5.03;;
15126;SDS011;7664;52.008;4.748;2022-08-19T02:40:58;7.13;;;4.43;;
15126;SDS011;7664;52.008;4.748;2022-08-19T02:43:28;6.10;;;4.72;;
15126;SDS011;7664;52.008;4.748;2022-08-19T02:45:59;5.70;;;4.50;;
15126;SDS011;7664;52.008;4.748;2022-08-19T02:48:28;6.57;;;4.85;;
15126;SDS011;7664;52.008;4.748;2022-08-19T02:50:58;6.57;;;4.55;;
15126;SDS011;7664;52.008;4.748;2022-08-19T02:53:27;6.00;;;4.30;;
15126;SDS011;7664;52.008;4.748;2022-08-19T02:55:58;6.13;;;4.63;;
15126;SDS011;7664;52.008;4.748;2022-08-19T02:58:29;6.28;;;4.82;;
15126;SDS011;7664;52.008;4.748;2022-08-19T03:01:00;6.70;;;5.00;;
15126;SDS011;7664;52.008;4.748;2022-08-19T03:03:28;7.30;;;5.43;;
15126;SDS011;7664;52.008;4.748;2022-08-19T03:06:03;8.20;;;5.35;;
15126;SDS011;7664;52.008;4.748;2022-08-19T03:08:36;12.52;;;7.65;;
15126;SDS011;7664;52.008;4.748;2022-08-19T03:11:11;10.02;;;6.82;;
15126;SDS011;7664;52.008;4.748;2022-08-19T03:13:41;9.25;;;6.60;;
15126;SDS011;7664;52.008;4.748;2022-08-19T03:16:10;9.30;;;6.40;;
15126;SDS011;7664;52.008;4.748;2022-08-19T03:18:44;9.90;;;6.70;;
15126;SDS011;7664;52.008;4.748;2022-08-19T03:21:15;9.35;;;6.60;;
15126;SDS011;7664;52.008;4.748;2022-08-19T03:23:44;8.43;;;5.97;;
15126;SDS011;7664;52.008;4.748;2022-08-19T03:26:13;10.70;;;7.45;;
15126;SDS011;7664;52.008;4.748;2022-08-19T03:28:44;11.32;;;7.72;;
15126;SDS011;7664;52.008;4.748;2022-08-19T03:31:18;10.77;;;7.75;;
15126;SDS011;7664;52.008;4.748;2022-08-19T03:34:13;12.23;;;8.57;;
15126;SDS011;7664;52.008;4.748;2022-08-19T03:36:46;11.32;;;8.02;;
15126;SDS011;7664;52.008;4.748;2022-08-19T03:39:15;14.48;;;9.88;;
15126;SDS011;7664;52.008;4.748;2022-08-19T03:41:47;12.68;;;8.80;;
15126;SDS011;7664;52.008;4.748;2022-08-19T03:44:36;14.38;;;9.25;;
15126;SDS011;7664;52.008;4.748;2022-08-19T03:47:05;13.38;;;9.30;;
15126;SDS011;7664;52.008;4.748;2022-08-19T03:49:33;14.05;;;9.43;;
15126;SDS011;7664;52.008;4.748;2022-08-19T03:52:03;16.42;;;10.13;;
15126;SDS011;7664;52.008;4.748;2022-08-19T03:54:34;20.33;;;11.23;;
15126;SDS011;7664;52.008;4.748;2022-08-19T03:57:05;16.88;;;11.52;;
15126;SDS011;7664;52.008;4.748;2022-08-19T03:59:35;17.35;;;11.43;;
15126;SDS011;7664;52.008;4.748;2022-08-19T04:02:06;16.45;;;11.00;;
15126;SDS011;7664;52.008;4.748;2022-08-19T04:04:39;16.02;;;11.25;;
15126;SDS011;7664;52.008;4.748;2022-08-19T04:07:13;17.10;;;11.43;;
15126;SDS011;7664;52.008;4.748;2022-08-19T04:09:44;17.55;;;11.57;;
15126;SDS011;7664;52.008;4.748;2022-08-19T04:12:14;21.23;;;13.30;;
15126;SDS011;7664;52.008;4.748;2022-08-19T04:14:45;24.98;;;13.95;;
15126;SDS011;7664;52.008;4.748;2022-08-19T04:17:13;24.42;;;13.90;;
15126;SDS011;7664;52.008;4.748;2022-08-19T04:19:41;20.42;;;13.43;;
15126;SDS011;7664;52.008;4.748;2022-08-19T04:22:09;25.30;;;16.10;;
15126;SDS011;7664;52.008;4.748;2022-08-19T04:24:38;25.42;;;14.80;;
15126;SDS011;7664;52.008;4.748;2022-08-19T04:27:06;26.25;;;15.27;;
15126;SDS011;7664;52.008;4.748;2022-08-19T04:29:36;23.58;;;15.75;;
15126;SDS011;7664;52.008;4.748;2022-08-19T04:32:05;26.25;;;15.85;;
15126;SDS011;7664;52.008;4.748;2022-08-19T04:34:35;29.48;;;16.63;;
15126;SDS011;7664;52.008;4.748;2022-08-19T04:37:24;29.30;;;17.05;;
15126;SDS011;7664;52.008;4.748;2022-08-19T04:40:01;31.85;;;17.30;;
15126;SDS011;7664;52.008;4.748;2022-08-19T04:42:48;32.58;;;18.42;;
15126;SDS011;7664;52.008;4.748;2022-08-19T04:45:18;28.10;;;17.60;;
15126;SDS011;7664;52.008;4.748;2022-08-19T04:47:48;28.42;;;16.88;;
15126;SDS011;7664;52.008;4.748;2022-08-19T04:50:24;31.60;;;18.13;;
15126;SDS011;7664;52.008;4.748;2022-08-19T04:52:52;25.90;;;15.65;;
15126;SDS011;7664;52.008;4.748;2022-08-19T04:55:21;31.15;;;17.42;;
15126;SDS011;7664;52.008;4.748;2022-08-19T04:57:51;31.13;;;17.33;;
15126;SDS011;7664;52.008;4.748;2022-08-19T05:00:22;31.10;;;16.50;;
15126;SDS011;7664;52.008;4.748;2022-08-19T05:02:53;31.05;;;19.15;;
15126;SDS011;7664;52.008;4.748;2022-08-19T05:05:21;29.70;;;18.38;;
15126;SDS011;7664;52.008;4.748;2022-08-19T05:07:53;34.80;;;19.83;;
15126;SDS011;7664;52.008;4.748;2022-08-19T05:10:22;32.38;;;19.05;;
15126;SDS011;7664;52.008;4.748;2022-08-19T05:12:50;28.40;;;16.75;;
15126;SDS011;7664;52.008;4.748;2022-08-19T05:15:18;32.30;;;19.00;;
15126;SDS011;7664;52.008;4.748;2022-08-19T05:17:48;33.53;;;19.40;;
15126;SDS011;7664;52.008;4.748;2022-08-19T05:20:37;33.28;;;18.85;;
15126;SDS011;7664;52.008;4.748;2022-08-19T05:23:22;32.42;;;18.63;;
15126;SDS011;7664;52.008;4.748;2022-08-19T05:25:51;30.42;;;19.05;;
15126;SDS011;7664;52.008;4.748;2022-08-19T05:28:21;28.45;;;17.20;;
15126;SDS011;7664;52.008;4.748;2022-08-19T05:30:49;32.60;;;18.33;;
15126;SDS011;7664;52.008;4.748;2022-08-19T05:33:19;28.52;;;16.98;;
15126;SDS011;7664;52.008;4.748;2022-08-19T05:35:47;32.67;;;18.35;;
15126;SDS011;7664;52.008;4.748;2022-08-19T05:38:16;36.80;;;18.70;;
15126;SDS011;7664;52.008;4.748;2022-08-19T05:40:45;33.38;;;19.65;;
15126;SDS011;7664;52.008;4.748;2022-08-19T05:43:15;34.88;;;16.92;;
15126;SDS011;7664;52.008;4.748;2022-08-19T05:45:46;28.42;;;17.42;;
15126;SDS011;7664;52.008;4.748;2022-08-19T05:48:19;34.63;;;18.98;;
15126;SDS011;7664;52.008;4.748;2022-08-19T05:50:47;26.92;;;16.80;;
15126;SDS011;7664;52.008;4.748;2022-08-19T05:53:16;28.65;;;16.88;;
15126;SDS011;7664;52.008;4.748;2022-08-19T05:55:47;28.33;;;17.38;;
15126;SDS011;7664;52.008;4.748;2022-08-19T05:58:15;31.95;;;17.98;;
15126;SDS011;7664;52.008;4.748;2022-08-19T06:00:50;38.38;;;19.38;;
15126;SDS011;7664;52.008;4.748;2022-08-19T06:03:22;31.00;;;17.30;;
15126;SDS011;7664;52.008;4.748;2022-08-19T06:05:51;29.85;;;17.98;;
15126;SDS011;7664;52.008;4.748;2022-08-19T06:08:19;37.63;;;19.67;;
15126;SDS011;7664;52.008;4.748;2022-08-19T06:11:11;31.17;;;16.83;;
15126;SDS011;7664;52.008;4.748;2022-08-19T06:13:42;33.08;;;19.05;;
15126;SDS011;7664;52.008;4.748;2022-08-19T06:16:26;27.67;;;17.60;;
15126;SDS011;7664;52.008;4.748;2022-08-19T06:18:57;34.10;;;18.80;;
15126;SDS011;7664;52.008;4.748;2022-08-19T06:21:33;28.48;;;17.42;;
15126;SDS011;7664;52.008;4.748;2022-08-19T06:24:04;31.88;;;19.13;;
15126;SDS011;7664;52.008;4.748;2022-08-19T06:26:34;34.38;;;20.50;;
15126;SDS011;7664;52.008;4.748;2022-08-19T06:29:03;33.97;;;20.75;;
15126;SDS011;7664;52.008;4.748;2022-08-19T06:31:33;32.42;;;20.58;;
15126;SDS011;7664;52.008;4.748;2022-08-19T06:34:04;32.58;;;19.65;;
15126;SDS011;7664;52.008;4.748;2022-08-19T06:36:36;30.00;;;18.27;;
15126;SDS011;7664;52.008;4.748;2022-08-19T06:39:10;26.85;;;17.15;;
15126;SDS011;7664;52.008;4.748;2022-08-19T06:41:41;27.20;;;18.25;;
15126;SDS011;7664;52.008;4.748;2022-08-19T06:44:17;25.83;;;17.63;;
15126;SDS011;7664;52.008;4.748;2022-08-19T06:46:50;26.65;;;16.60;;
15126;SDS011;7664;52.008;4.748;2022-08-19T06:49:21;26.20;;;16.20;;
15126;SDS011;7664;52.008;4.748;2022-08-19T06:51:49;22.48;;;15.90;;
15126;SDS011;7664;52.008;4.748;2022-08-19T06:54:18;27.63;;;16.17;;
15126;SDS011;7664;52.008;4.748;2022-08-19T06:56:46;20.10;;;13.40;;
15126;SDS011;7664;52.008;4.748;2022-08-19T06:59:16;21.83;;;14.70;;
15126;SDS011;7664;52.008;4.748;2022-08-19T07:01:46;27.23;;;14.73;;
15126;SDS011;7664;52.008;4.748;2022-08-19T07:04:17;21.33;;;14.80;;
15126;SDS011;7664;52.008;4.748;2022-08-19T07:06:56;16.95;;;12.63;;
15126;SDS011;7664;52.008;4.748;2022-08-19T07:09:44;18.38;;;12.57;;
15126;SDS011;7664;52.008;4.748;2022-08-19T07:12:25;21.95;;;12.75;;
15126;SDS011;7664;52.008;4.748;2022-08-19T07:14:56;18.48;;;12.18;;
15126;SDS011;7664;52.008;4.748;2022-08-19T07:17:28;15.23;;;11.00;;
15126;SDS011;7664;52.008;4.748;2022-08-19T07:19:59;19.00;;;12.07;;
15126;SDS011;7664;52.008;4.748;2022-08-19T07:22:36;19.40;;;12.13;;
15126;SDS011;7664;52.008;4.748;2022-08-19T07:25:05;16.33;;;10.57;;
15126;SDS011;7664;52.008;4.748;2022-08-19T07:27:39;13.77;;;9.60;;
15126;SDS011;7664;52.008;4.748;2022-08-19T07:30:11;17.48;;;10.95;;
15126;SDS011;7664;52.008;4.748;2022-08-19T07:32:40;19.10;;;11.48;;
15126;SDS011;7664;52.008;4.748;2022-08-19T07:35:08;20.30;;;12.05;;
15126;SDS011;7664;52.008;4.748;2022-08-19T07:37:40;17.15;;;11.25;;
15126;SDS011;7664;52.008;4.748;2022-08-19T07:40:11;17.67;;;10.88;;
15126;SDS011;7664;52.008;4.748;2022-08-19T07:42:39;18.25;;;10.85;;
15126;SDS011;7664;52.008;4.748;2022-08-19T07:45:07;16.23;;;11.02;;
15126;SDS011;7664;52.008;4.748;2022-08-19T07:47:39;19.80;;;11.80;;
15126;SDS011;7664;52.008;4.748;2022-08-19T07:50:16;15.95;;;10.50;;
15126;SDS011;7664;52.008;4.748;2022-08-19T07:52:47;18.42;;;11.95;;
15126;SDS011;7664;52.008;4.748;2022-08-19T07:55:21;15.05;;;11.00;;
15126;SDS011;7664;52.008;4.748;2022-08-19T07:58:06;16.95;;;11.05;;
15126;SDS011;7664;52.008;4.748;2022-08-19T08:00:37;17.83;;;11.63;;
15126;SDS011;7664;52.008;4.748;2022-08-19T08:03:08;15.38;;;10.25;;
15126;SDS011;7664;52.008;4.748;2022-08-19T08:05:40;16.13;;;10.80;;
15126;SDS011;7664;52.008;4.748;2022-08-19T08:08:28;17.00;;;11.38;;
15126;SDS011;7664;52.008;4.748;2022-08-19T08:11:20;14.75;;;10.18;;
15126;SDS011;7664;52.008;4.748;2022-08-19T08:13:49;16.95;;;10.73;;
15126;SDS011;7664;52.008;4.748;2022-08-19T08:16:30;12.15;;;9.25;;
15126;SDS011;7664;52.008;4.748;2022-08-19T08:19:05;14.65;;;9.88;;
15126;SDS011;7664;52.008;4.748;2022-08-19T08:21:50;13.48;;;10.13;;
15126;SDS011;7664;52.008;4.748;2022-08-19T08:24:22;12.50;;;9.68;;
15126;SDS011;7664;52.008;4.748;2022-08-19T08:26:54;13.13;;;9.63;;
15126;SDS011;7664;52.008;4.748;2022-08-19T08:29:23;17.70;;;10.82;;
15126;SDS011;7664;52.008;4.748;2022-08-19T08:32:00;16.08;;;10.07;;
15126;SDS011;7664;52.008;4.748;2022-08-19T08:34:28;15.70;;;11.90;;
15126;SDS011;7664;52.008;4.748;2022-08-19T08:36:56;18.88;;;11.50;;
15126;SDS011;7664;52.008;4.748;2022-08-19T08:39:27;16.67;;;11.07;;
15126;SDS011;7664;52.008;4.748;2022-08-19T08:41:56;13.35;;;11.60;;
15126;SDS011;7664;52.008;4.748;2022-08-19T08:44:43;16.58;;;11.48;;
15126;SDS011;7664;52.008;4.748;2022-08-19T08:47:30;17.52;;;13.15;;
15126;SDS011;7664;52.008;4.748;2022-08-19T08:50:07;16.48;;;12.05;;
15126;SDS011;7664;52.008;4.748;2022-08-19T08:52:43;14.00;;;12.13;;
15126;SDS011;7664;52.008;4.748;2022-08-19T08:55:24;21.02;;;13.48;;
15126;SDS011;7664;52.008;4.748;2022-08-19T08:58:02;16.67;;;11.80;;
15126;SDS011;7664;52.008;4.748;2022-08-19T09:00:36;15.85;;;10.60;;
15126;SDS011;7664;52.008;4.748;2022-08-19T09:03:14;19.08;;;11.45;;
15126;SDS011;7664;52.008;4.748;2022-08-19T09:05:50;15.85;;;11.43;;
15126;SDS011;7664;52.008;4.748;2022-08-19T09:11:15;14.88;;;10.50;;
15126;SDS011;7664;52.008;4.748;2022-08-19T09:14:11;13.13;;;10.00;;
15126;SDS011;7664;52.008;4.748;2022-08-19T09:17:07;14.88;;;9.90;;
15126;SDS011;7664;52.008;4.748;2022-08-19T09:19:46;11.48;;;8.45;;
15126;SDS011;7664;52.008;4.748;2022-08-19T09:22:20;14.75;;;9.77;;
15126;SDS011;7664;52.008;4.748;2022-08-19T09:24:51;14.18;;;9.93;;
15126;SDS011;7664;52.008;4.748;2022-08-19T09:27:21;13.98;;;9.98;;
15126;SDS011;7664;52.008;4.748;2022-08-19T09:30:12;13.98;;;7.85;;
15126;SDS011;7664;52.008;4.748;2022-08-19T09:32:47;11.23;;;8.70;;
15126;SDS011;7664;52.008;4.748;2022-08-19T09:35:20;10.77;;;7.85;;
15126;SDS011;7664;52.008;4.748;2022-08-19T09:37:50;11.65;;;8.35;;
15126;SDS011;7664;52.008;4.748;2022-08-19T09:40:25;11.55;;;8.75;;
15126;SDS011;7664;52.008;4.748;2022-08-19T09:42:57;10.93;;;7.35;;
15126;SDS011;7664;52.008;4.748;2022-08-19T09:45:42;18.08;;;10.13;;
15126;SDS011;7664;52.008;4.748;2022-08-19T09:48:10;11.18;;;8.40;;
15126;SDS011;7664;52.008;4.748;2022-08-19T09:50:48;11.77;;;9.15;;
15126;SDS011;7664;52.008;4.748;2022-08-19T09:53:17;10.32;;;8.82;;
15126;SDS011;7664;52.008;4.748;2022-08-19T09:55:51;11.00;;;7.72;;
15126;SDS011;7664;52.008;4.748;2022-08-19T09:58:23;10.18;;;7.60;;
15126;SDS011;7664;52.008;4.748;2022-08-19T10:00:53;10.00;;;8.30;;
15126;SDS011;7664;52.008;4.748;2022-08-19T10:03:22;10.45;;;7.35;;
15126;SDS011;7664;52.008;4.748;2022-08-19T10:05:59;11.68;;;7.93;;
15126;SDS011;7664;52.008;4.748;2022-08-19T10:08:42;12.82;;;7.60;;
15126;SDS011;7664;52.008;4.748;2022-08-19T10:11:15;12.05;;;7.55;;
15126;SDS011;7664;52.008;4.748;2022-08-19T10:14:03;12.27;;;7.50;;
15126;SDS011;7664;52.008;4.748;2022-08-19T10:16:33;14.18;;;7.47;;
15126;SDS011;7664;52.008;4.748;2022-08-19T10:19:05;9.18;;;7.18;;
15126;SDS011;7664;52.008;4.748;2022-08-19T10:21:51;10.32;;;6.75;;
15126;SDS011;7664;52.008;4.748;2022-08-19T10:24:25;13.77;;;6.82;;
15126;SDS011;7664;52.008;4.748;2022-08-19T10:26:54;9.10;;;6.32;;
15126;SDS011;7664;52.008;4.748;2022-08-19T10:29:26;9.82;;;6.47;;
15126;SDS011;7664;52.008;4.748;2022-08-19T10:31:59;12.45;;;6.15;;
15126;SDS011;7664;52.008;4.748;2022-08-19T10:34:29;7.18;;;5.65;;
15126;SDS011;7664;52.008;4.748;2022-08-19T10:37:13;9.15;;;6.15;;
15126;SDS011;7664;52.008;4.748;2022-08-19T10:39:54;6.57;;;5.45;;
15126;SDS011;7664;52.008;4.748;2022-08-19T10:42:22;7.15;;;5.82;;
15126;SDS011;7664;52.008;4.748;2022-08-19T10:44:54;10.18;;;5.68;;
15126;SDS011;7664;52.008;4.748;2022-08-19T10:50:16;8.52;;;5.20;;
15126;SDS011;7664;52.008;4.748;2022-08-19T10:53:04;7.22;;;5.18;;
15126;SDS011;7664;52.008;4.748;2022-08-19T10:55:35;6.03;;;4.45;;
15126;SDS011;7664;52.008;4.748;2022-08-19T10:58:25;5.57;;;3.47;;
15126;SDS011;7664;52.008;4.748;2022-08-19T11:00:55;7.60;;;3.45;;
15126;SDS011;7664;52.008;4.748;2022-08-19T11:03:26;7.45;;;4.78;;
15126;SDS011;7664;52.008;4.748;2022-08-19T11:06:07;5.80;;;3.67;;
15126;SDS011;7664;52.008;4.748;2022-08-19T11:08:36;5.35;;;3.40;;
15126;SDS011;7664;52.008;4.748;2022-08-19T11:11:10;6.05;;;3.25;;
15126;SDS011;7664;52.008;4.748;2022-08-19T11:13:40;9.60;;;3.53;;
15126;SDS011;7664;52.008;4.748;2022-08-19T11:16:12;5.40;;;2.60;;
15126;SDS011;7664;52.008;4.748;2022-08-19T11:18:53;4.80;;;3.08;;
15126;SDS011;7664;52.008;4.748;2022-08-19T11:21:25;6.50;;;3.55;;
15126;SDS011;7664;52.008;4.748;2022-08-19T11:23:59;3.90;;;2.65;;
15126;SDS011;7664;52.008;4.748;2022-08-19T11:26:32;5.20;;;2.92;;
15126;SDS011;7664;52.008;4.748;2022-08-19T11:29:11;3.35;;;2.50;;
15126;SDS011;7664;52.008;4.748;2022-08-19T11:31:44;4.63;;;2.63;;
15126;SDS011;7664;52.008;4.748;2022-08-19T11:34:15;7.10;;;3.03;;
15126;SDS011;7664;52.008;4.748;2022-08-19T11:36:48;7.25;;;3.00;;
15126;SDS011;7664;52.008;4.748;2022-08-19T11:39:27;5.95;;;2.97;;
15126;SDS011;7664;52.008;4.748;2022-08-19T11:42:00;4.47;;;2.30;;
15126;SDS011;7664;52.008;4.748;2022-08-19T11:44:31;2.90;;;1.75;;
15126;SDS011;7664;52.008;4.748;2022-08-19T11:47:10;5.72;;;2.55;;
15126;SDS011;7664;52.008;4.748;2022-08-19T11:49:42;3.22;;;1.92;;
15126;SDS011;7664;52.008;4.748;2022-08-19T11:52:31;3.03;;;1.98;;
15126;SDS011;7664;52.008;4.748;2022-08-19T11:54:59;2.92;;;1.70;;
15126;SDS011;7664;52.008;4.748;2022-08-19T11:57:28;3.25;;;1.70;;
15126;SDS011;7664;52.008;4.748;2022-08-19T11:59:56;2.47;;;1.60;;
15126;SDS011;7664;52.008;4.748;2022-08-19T12:02:25;2.17;;;1.48;;
15126;SDS011;7664;52.008;4.748;2022-08-19T12:04:53;2.05;;;1.88;;
15126;SDS011;7664;52.008;4.748;2022-08-19T12:07:25;3.63;;;1.45;;
15126;SDS011;7664;52.008;4.748;2022-08-19T12:09:55;5.15;;;1.95;;
15126;SDS011;7664;52.008;4.748;2022-08-19T12:12:28;3.95;;;1.70;;
15126;SDS011;7664;52.008;4.748;2022-08-19T12:14:56;1.67;;;1.40;;
15126;SDS011;7664;52.008;4.748;2022-08-19T12:17:29;2.25;;;1.40;;
15126;SDS011;7664;52.008;4.748;2022-08-19T12:19:57;2.05;;;1.25;;
15126;SDS011;7664;52.008;4.748;2022-08-19T12:22:25;1.50;;;1.23;;
15126;SDS011;7664;52.008;4.748;2022-08-19T12:24:57;1.30;;;1.10;;
15126;SDS011;7664;52.008;4.748;2022-08-19T12:27:31;2.22;;;1.13;;
15126;SDS011;7664;52.008;4.748;2022-08-19T12:30:08;1.52;;;1.05;;
15126;SDS011;7664;52.008;4.748;2022-08-19T12:32:50;1.20;;;1.00;;
15126;SDS011;7664;52.008;4.748;2022-08-19T12:35:23;2.90;;;1.23;;
15126;SDS011;7664;52.008;4.748;2022-08-19T12:37:58;2.55;;;0.93;;
15126;SDS011;7664;52.008;4.748;2022-08-19T12:40:38;1.75;;;1.17;;
15126;SDS011;7664;52.008;4.748;2022-08-19T12:43:13;1.92;;;1.05;;
15126;SDS011;7664;52.008;4.748;2022-08-19T12:45:46;2.40;;;1.17;;
15126;SDS011;7664;52.008;4.748;2022-08-19T12:48:16;1.27;;;1.10;;
15126;SDS011;7664;52.008;4.748;2022-08-19T12:51:00;4.10;;;1.90;;
15126;SDS011;7664;52.008;4.748;2022-08-19T12:53:32;5.88;;;2.63;;
15126;SDS011;7664;52.008;4.748;2022-08-19T12:56:05;4.45;;;2.78;;
15126;SDS011;7664;52.008;4.748;2022-08-19T12:58:38;4.53;;;2.40;;
15126;SDS011;7664;52.008;4.748;2022-08-19T13:01:15;2.90;;;2.58;;
15126;SDS011;7664;52.008;4.748;2022-08-19T13:04:05;5.25;;;3.10;;
15126;SDS011;7664;52.008;4.748;2022-08-19T13:06:37;6.38;;;3.47;;
15126;SDS011;7664;52.008;4.748;2022-08-19T13:09:11;3.92;;;2.80;;
15126;SDS011;7664;52.008;4.748;2022-08-19T13:11:46;3.80;;;2.70;;
15126;SDS011;7664;52.008;4.748;2022-08-19T13:14:19;3.30;;;2.42;;
15126;SDS011;7664;52.008;4.748;2022-08-19T13:16:47;1.85;;;1.67;;
15126;SDS011;7664;52.008;4.748;2022-08-19T13:19:25;2.65;;;2.22;;
15126;SDS011;7664;52.008;4.748;2022-08-19T13:21:53;3.42;;;2.40;;
15126;SDS011;7664;52.008;4.748;2022-08-19T13:24:28;2.33;;;1.92;;
15126;SDS011;7664;52.008;4.748;2022-08-19T13:26:58;3.28;;;2.47;;
15126;SDS011;7664;52.008;4.748;2022-08-19T13:29:33;4.43;;;2.50;;
15126;SDS011;7664;52.008;4.748;2022-08-19T13:32:24;2.60;;;2.00;;
15126;SDS011;7664;52.008;4.748;2022-08-19T13:35:11;2.78;;;1.60;;
15126;SDS011;7664;52.008;4.748;2022-08-19T13:37:42;2.80;;;1.42;;
15126;SDS011;7664;52.008;4.748;2022-08-19T13:40:17;1.95;;;1.30;;
15126;SDS011;7664;52.008;4.748;2022-08-19T13:42:54;1.45;;;1.30;;
15126;SDS011;7664;52.008;4.748;2022-08-19T13:45:22;2.08;;;1.48;;
15126;SDS011;7664;52.008;4.748;2022-08-19T13:48:07;2.20;;;1.90;;
15126;SDS011;7664;52.008;4.748;2022-08-19T13:50:51;3.92;;;2.60;;
15126;SDS011;7664;52.008;4.748;2022-08-19T13:53:28;3.08;;;2.13;;
15126;SDS011;7664;52.008;4.748;2022-08-19T13:56:00;4.40;;;2.97;;
15126;SDS011;7664;52.008;4.748;2022-08-19T13:58:35;5.95;;;3.45;;
15126;SDS011;7664;52.008;4.748;2022-08-19T14:01:23;7.10;;;3.80;;
15126;SDS011;7664;52.008;4.748;2022-08-19T14:03:52;5.45;;;3.80;;
15126;SDS011;7664;52.008;4.748;2022-08-19T14:06:22;6.07;;;4.43;;
15126;SDS011;7664;52.008;4.748;2022-08-19T14:08:55;6.28;;;4.07;;
15126;SDS011;7664;52.008;4.748;2022-08-19T14:11:24;5.57;;;3.67;;
15126;SDS011;7664;52.008;4.748;2022-08-19T14:14:03;6.00;;;3.65;;
15126;SDS011;7664;52.008;4.748;2022-08-19T14:16:31;7.00;;;4.10;;
15126;SDS011;7664;52.008;4.748;2022-08-19T14:19:02;7.00;;;4.15;;
15126;SDS011;7664;52.008;4.748;2022-08-19T14:21:34;5.60;;;3.75;;
15126;SDS011;7664;52.008;4.748;2022-08-19T14:24:06;5.50;;;4.05;;
15126;SDS011;7664;52.008;4.748;2022-08-19T14:26:49;11.45;;;4.90;;
15126;SDS011;7664;52.008;4.748;2022-08-19T14:29:18;8.32;;;4.60;;
15126;SDS011;7664;52.008;4.748;2022-08-19T14:31:48;9.45;;;4.90;;
15126;SDS011;7664;52.008;4.748;2022-08-19T14:34:19;8.15;;;4.93;;
15126;SDS011;7664;52.008;4.748;2022-08-19T14:36:55;9.70;;;5.25;;
15126;SDS011;7664;52.008;4.748;2022-08-19T14:39:39;8.45;;;4.60;;
15126;SDS011;7664;52.008;4.748;2022-08-19T14:42:11;7.75;;;4.22;;
15126;SDS011;7664;52.008;4.748;2022-08-19T14:44:45;5.35;;;4.10;;
15126;SDS011;7664;52.008;4.748;2022-08-19T14:47:19;5.70;;;3.78;;
15126;SDS011;7664;52.008;4.748;2022-08-19T14:49:58;5.07;;;3.28;;
15126;SDS011;7664;52.008;4.748;2022-08-19T14:52:31;4.60;;;3.05;;
15126;SDS011;7664;52.008;4.748;2022-08-19T14:55:00;3.83;;;2.70;;
15126;SDS011;7664;52.008;4.748;2022-08-19T14:57:32;3.63;;;2.65;;
15126;SDS011;7664;52.008;4.748;2022-08-19T15:00:24;7.55;;;2.65;;
15126;SDS011;7664;52.008;4.748;2022-08-19T15:02:56;6.35;;;3.05;;
15126;SDS011;7664;52.008;4.748;2022-08-19T15:05:25;4.75;;;2.20;;
15126;SDS011;7664;52.008;4.748;2022-08-19T15:07:58;3.70;;;2.13;;
15126;SDS011;7664;52.008;4.748;2022-08-19T15:10:33;5.43;;;1.80;;
15126;SDS011;7664;52.008;4.748;2022-08-19T15:13:11;3.28;;;2.08;;
15126;SDS011;7664;52.008;4.748;2022-08-19T15:15:39;3.45;;;1.90;;
15126;SDS011;7664;52.008;4.748;2022-08-19T15:18:13;4.07;;;2.10;;
15126;SDS011;7664;52.008;4.748;2022-08-19T15:20:42;2.22;;;1.50;;
15126;SDS011;7664;52.008;4.748;2022-08-19T15:23:19;3.22;;;1.15;;
15126;SDS011;7664;52.008;4.748;2022-08-19T15:25:48;2.95;;;1.20;;
15126;SDS011;7664;52.008;4.748;2022-08-19T15:28:19;0.95;;;0.70;;
15126;SDS011;7664;52.008;4.748;2022-08-19T15:30:48;2.88;;;1.23;;
15126;SDS011;7664;52.008;4.748;2022-08-19T15:33:24;2.60;;;1.20;;